Time;durP1;ratioP1;P1;durP2;ratioP2;P2;SDS_P1;SDS_P2;PMS_P1;PMS_P2;Temp;Humidity;BMP_temperature;BMP_pressure;BME280_temperature;BME280_humidity;BME280_pressure;Samples;Min_cycle;Max_cycle;Signal;HPM_P1;HPM_P2
2022/02/12 00:01:58;;;;;;;14.70;7.07;;;1.70;99.90;;;;;;4966949;28;20216;-82
2022/02/12 00:04:25;;;;;;;17.27;7.97;;;1.60;99.90;;;;;;4985081;28;20665;-80
2022/02/12 00:06:53;;;;;;;14.07;7.53;;;1.60;99.90;;;;;;4986208;28;20208;-80
2022/02/12 00:09:20;;;;;;;14.73;7.23;;;1.60;99.90;;;;;;4988819;28;20215;-81
2022/02/12 00:11:46;;;;;;;11.40;6.80;;;1.60;99.90;;;;;;4982751;28;20232;-79
2022/02/12 00:14:13;;;;;;;16.10;7.30;;;1.60;99.90;;;;;;4970332;28;20228;-80
2022/02/12 00:16:40;;;;;;;16.67;7.23;;;1.50;99.90;;;;;;4969084;28;20251;-81
2022/02/12 00:19:07;;;;;;;11.53;6.40;;;1.50;99.90;;;;;;4968915;28;20211;-79
2022/02/12 00:21:34;;;;;;;17.67;6.83;;;1.50;99.90;;;;;;4969624;28;20203;-81
2022/02/12 00:24:02;;;;;;;10.77;6.70;;;1.40;99.90;;;;;;4969777;28;20215;-81
2022/02/12 00:26:29;;;;;;;13.87;6.37;;;1.40;99.90;;;;;;4987527;28;20671;-79
2022/02/12 00:28:56;;;;;;;11.90;6.13;;;1.40;99.90;;;;;;4988241;28;20215;-79
2022/02/12 00:31:22;;;;;;;15.13;5.97;;;1.40;99.90;;;;;;4988333;28;20232;-80
2022/02/12 00:33:49;;;;;;;9.83;6.30;;;1.40;99.90;;;;;;4987522;28;20619;-77
2022/02/12 00:36:16;;;;;;;13.17;6.27;;;1.40;99.90;;;;;;4989007;28;20204;-77
2022/02/12 00:38:43;;;;;;;22.57;7.33;;;1.30;99.90;;;;;;4988142;28;20204;-78
2022/02/12 00:41:12;;;;;;;10.90;5.73;;;1.30;99.90;;;;;;4988272;28;20208;-79
2022/02/12 00:43:39;;;;;;;11.17;5.60;;;1.30;99.90;;;;;;4988071;28;20322;-77
2022/02/12 00:46:05;;;;;;;12.93;6.50;;;1.30;99.90;;;;;;4987109;28;20211;-79
2022/02/12 00:48:32;;;;;;;12.90;6.43;;;1.30;99.90;;;;;;5006156;22;20243;-79
2022/02/12 00:51:00;;;;;;;12.87;5.90;;;1.20;99.90;;;;;;5006537;28;20231;-78
2022/02/12 00:53:26;;;;;;;9.20;5.63;;;1.20;99.90;;;;;;4992615;28;20204;-79
2022/02/12 00:55:53;;;;;;;11.47;5.60;;;1.20;99.90;;;;;;4987908;28;20203;-80
2022/02/12 00:58:22;;;;;;;14.60;6.20;;;1.20;99.90;;;;;;4986898;28;20495;-80
2022/02/12 01:00:49;;;;;;;10.67;5.20;;;1.20;99.90;;;;;;4987072;28;20868;-80
2022/02/12 01:03:15;;;;;;;12.93;5.97;;;1.20;99.90;;;;;;4987393;28;20200;-77
2022/02/12 01:05:42;;;;;;;18.73;6.20;;;1.20;99.90;;;;;;4986646;28;20207;-80
2022/02/12 01:08:09;;;;;;;18.30;7.10;;;1.20;99.90;;;;;;4987565;28;20206;-76
2022/02/12 01:10:36;;;;;;;9.70;5.23;;;1.20;99.90;;;;;;4987193;28;20228;-77
2022/02/12 01:13:03;;;;;;;10.53;5.50;;;1.20;99.90;;;;;;4986627;28;20212;-78
2022/02/12 01:15:33;;;;;;;10.50;5.87;;;1.20;99.90;;;;;;4987442;28;20203;-78
2022/02/12 01:18:00;;;;;;;17.30;6.10;;;1.20;99.90;;;;;;4986958;28;20207;-74
2022/02/12 01:20:27;;;;;;;15.07;5.37;;;1.20;99.90;;;;;;4987460;28;20214;-80
2022/02/12 01:22:54;;;;;;;15.70;5.03;;;1.20;99.90;;;;;;4986885;28;20207;-79
2022/02/12 01:25:21;;;;;;;12.80;5.20;;;1.20;99.90;;;;;;4987847;28;20204;-79
2022/02/12 01:27:48;;;;;;;15.60;5.33;;;1.20;99.90;;;;;;4987489;28;20210;-80
2022/02/12 01:30:15;;;;;;;12.27;5.83;;;1.20;99.90;;;;;;4988550;28;20227;-79
2022/02/12 01:32:43;;;;;;;10.20;4.80;;;1.20;99.90;;;;;;4986825;28;20210;-77
2022/02/12 01:35:10;;;;;;;10.30;4.77;;;1.20;99.90;;;;;;4986788;28;20208;-79
2022/02/12 01:37:37;;;;;;;17.43;6.00;;;1.30;99.90;;;;;;4986974;28;20239;-79
2022/02/12 01:40:05;;;;;;;14.77;4.90;;;1.30;99.90;;;;;;4987295;28;20208;-79
2022/02/12 01:42:32;;;;;;;11.67;4.97;;;1.40;99.90;;;;;;4986569;28;20254;-80
2022/02/12 01:45:00;;;;;;;12.93;4.80;;;1.40;99.90;;;;;;4986669;28;20214;-80
2022/02/12 01:47:29;;;;;;;14.27;4.50;;;1.40;99.90;;;;;;5017099;28;20206;-80
2022/02/12 01:49:57;;;;;;;11.83;4.87;;;1.50;99.90;;;;;;5018872;28;20199;-80
2022/02/12 01:52:28;;;;;;;15.23;4.97;;;1.50;99.90;;;;;;4986951;28;20236;-76
2022/02/12 01:54:56;;;;;;;15.50;5.67;;;1.60;99.90;;;;;;4986299;28;20251;-79
2022/02/12 01:57:23;;;;;;;16.83;4.47;;;1.60;99.90;;;;;;4988173;28;20204;-79
2022/02/12 01:59:50;;;;;;;12.83;5.70;;;1.60;99.90;;;;;;5005935;28;20854;-79
2022/02/12 02:02:16;;;;;;;17.17;5.83;;;1.60;99.90;;;;;;5001554;28;20275;-79
2022/02/12 02:04:43;;;;;;;14.07;4.63;;;1.60;99.90;;;;;;4986827;28;20200;-81
2022/02/12 02:07:12;;;;;;;16.60;5.57;;;1.60;99.90;;;;;;4986837;28;20211;-80
2022/02/12 02:09:39;;;;;;;19.73;5.80;;;1.60;99.90;;;;;;4985647;28;20266;-79
2022/02/12 02:12:06;;;;;;;17.40;5.43;;;1.60;99.90;;;;;;4986467;28;20228;-78
2022/02/12 02:14:35;;;;;;;16.37;6.37;;;1.70;99.90;;;;;;4986224;28;20196;-78
2022/02/12 02:17:02;;;;;;;19.03;5.77;;;1.70;99.90;;;;;;4986065;28;20500;-78
2022/02/12 02:19:30;;;;;;;15.07;4.63;;;1.70;99.90;;;;;;4986388;28;20348;-78
2022/02/12 02:21:58;;;;;;;8.07;4.00;;;1.70;99.90;;;;;;4986093;28;20262;-78
2022/02/12 02:24:26;;;;;;;16.30;6.17;;;1.70;99.90;;;;;;4985407;28;20204;-79
2022/02/12 02:27:04;;;;;;;16.30;4.73;;;1.70;99.90;;;;;;4985170;28;20204;-75
2022/02/12 02:29:30;;;;;;;19.37;4.93;;;1.70;99.90;;;;;;4985605;28;20196;-75
2022/02/12 02:31:57;;;;;;;11.27;5.77;;;1.70;99.90;;;;;;4985378;28;20231;-78
2022/02/12 02:34:25;;;;;;;16.80;5.47;;;1.70;99.90;;;;;;4985651;28;20620;-76
2022/02/12 02:36:52;;;;;;;15.37;5.03;;;1.70;99.90;;;;;;4985060;28;20207;-79
2022/02/12 02:39:19;;;;;;;13.27;5.17;;;1.70;99.90;;;;;;4985808;28;20204;-79
2022/02/12 02:41:47;;;;;;;13.73;4.90;;;1.70;99.90;;;;;;4985164;28;20208;-77
2022/02/12 02:44:14;;;;;;;15.00;5.97;;;1.70;99.90;;;;;;4985452;28;20224;-78
2022/02/12 02:46:41;;;;;;;10.50;4.20;;;1.70;99.90;;;;;;5003938;28;20203;-79
2022/02/12 02:49:08;;;;;;;18.50;5.10;;;1.70;99.90;;;;;;5019432;28;20251;-78
2022/02/12 02:57:05;;;;;;;23.00;6.83;;;1.70;99.90;;;;;;4990666;28;20206;-80
2022/02/12 02:59:31;;;;;;;11.60;5.07;;;1.70;99.90;;;;;;5006089;28;20491;-79
2022/02/12 03:01:58;;;;;;;17.33;6.27;;;1.70;99.90;;;;;;4995964;28;20223;-78
2022/02/12 03:04:25;;;;;;;15.83;4.47;;;1.70;99.90;;;;;;4986472;28;20199;-80
2022/02/12 03:06:53;;;;;;;16.50;4.73;;;1.70;99.90;;;;;;4986561;28;20258;-79
2022/02/12 03:09:19;;;;;;;14.80;5.57;;;1.80;99.90;;;;;;4986695;28;20199;-79
2022/02/12 03:11:46;;;;;;;11.40;4.40;;;1.80;99.90;;;;;;4986247;28;20242;-79
2022/02/12 03:14:14;;;;;;;18.27;4.80;;;1.80;99.90;;;;;;4986178;28;20215;-79
2022/02/12 03:16:41;;;;;;;14.33;4.93;;;1.80;99.90;;;;;;4986338;28;20652;-80
2022/02/12 03:19:08;;;;;;;19.83;5.90;;;1.80;99.90;;;;;;4985051;28;20215;-79
2022/02/12 03:21:35;;;;;;;18.10;4.90;;;1.80;99.90;;;;;;4986249;28;20203;-80
2022/02/12 03:24:02;;;;;;;15.80;5.33;;;1.80;99.90;;;;;;4986195;28;20211;-80
2022/02/12 03:26:29;;;;;;;13.47;5.43;;;1.80;99.90;;;;;;4986692;28;20200;-79
2022/02/12 03:28:56;;;;;;;12.43;4.60;;;1.80;99.90;;;;;;4985901;28;20211;-79
2022/02/12 03:31:24;;;;;;;20.27;4.30;;;1.80;99.90;;;;;;4986245;28;20762;-79
2022/02/12 03:33:50;;;;;;;10.60;4.47;;;1.80;99.90;;;;;;4984997;28;20211;-81
2022/02/12 03:36:17;;;;;;;16.20;5.40;;;1.90;99.90;;;;;;4986212;28;20525;-80
2022/02/12 03:38:48;;;;;;;17.60;4.60;;;1.90;99.90;;;;;;4985235;28;20204;-78
2022/02/12 03:41:14;;;;;;;16.47;4.70;;;1.90;99.90;;;;;;5005431;28;20195;-77
2022/02/12 03:43:41;;;;;;;17.90;5.13;;;1.90;99.90;;;;;;5008396;28;20639;-80
2022/02/12 03:46:09;;;;;;;11.50;4.20;;;1.90;99.90;;;;;;5013335;28;20198;-79
2022/02/12 03:48:37;;;;;;;16.10;5.37;;;1.90;99.90;;;;;;5019805;28;20687;-80
2022/02/12 03:51:04;;;;;;;18.23;4.97;;;2.00;99.90;;;;;;5008775;28;20227;-77
2022/02/12 03:53:31;;;;;;;14.27;4.77;;;1.90;99.90;;;;;;5008114;28;20207;-78
2022/02/12 03:55:58;;;;;;;12.30;4.60;;;2.00;99.90;;;;;;5006888;28;20223;-77
2022/02/12 03:58:25;;;;;;;17.03;4.73;;;2.00;99.90;;;;;;5008720;28;20206;-80
2022/02/12 04:00:51;;;;;;;10.47;4.30;;;2.00;99.90;;;;;;5008506;28;20210;-77
2022/02/12 04:03:18;;;;;;;14.93;5.10;;;2.00;99.90;;;;;;4999273;28;20212;-76
2022/02/12 04:05:47;;;;;;;9.00;3.80;;;2.10;99.90;;;;;;4988166;28;20870;-79
2022/02/12 04:08:18;;;;;;;13.00;4.70;;;2.10;99.90;;;;;;4988284;28;20625;-78
2022/02/12 04:10:45;;;;;;;13.53;4.13;;;2.10;99.90;;;;;;4988303;28;20302;-78
2022/02/12 04:13:12;;;;;;;10.07;3.60;;;2.10;99.90;;;;;;4988209;28;20203;-77
2022/02/12 04:15:39;;;;;;;14.03;3.73;;;2.10;99.90;;;;;;4987679;28;20211;-77
2022/02/12 04:18:09;;;;;;;10.27;3.83;;;2.10;99.90;;;;;;4989016;28;20204;-79
2022/02/12 04:20:36;;;;;;;17.67;4.10;;;2.10;99.90;;;;;;4988267;28;20277;-79
2022/02/12 04:23:04;;;;;;;14.27;4.83;;;2.10;99.90;;;;;;4987748;28;20207;-79
2022/02/12 04:25:31;;;;;;;14.77;4.30;;;2.10;99.90;;;;;;4987386;28;20212;-79
2022/02/12 04:27:58;;;;;;;9.23;3.80;;;2.10;99.90;;;;;;4988877;28;20609;-80
2022/02/12 04:30:25;;;;;;;17.23;4.00;;;2.00;99.90;;;;;;4989150;28;20212;-81
2022/02/12 04:32:52;;;;;;;15.60;4.53;;;2.00;99.90;;;;;;4989574;28;20238;-79
2022/02/12 04:35:19;;;;;;;11.30;3.87;;;2.10;99.90;;;;;;4989531;28;20203;-80
2022/02/12 04:37:46;;;;;;;9.47;3.83;;;2.10;99.90;;;;;;4989173;28;20210;-79
2022/02/12 04:40:14;;;;;;;11.40;4.10;;;2.10;99.90;;;;;;5003355;28;20290;-81
2022/02/12 04:42:41;;;;;;;14.03;4.20;;;2.00;99.90;;;;;;5008857;28;20199;-80
2022/02/12 04:45:09;;;;;;;13.10;4.33;;;2.00;99.90;;;;;;4997946;28;20249;-80
2022/02/12 04:47:37;;;;;;;15.50;4.23;;;2.00;99.90;;;;;;5021504;28;20610;-81
2022/02/12 04:50:05;;;;;;;9.73;3.97;;;2.10;99.90;;;;;;5000608;28;20222;-80
2022/02/12 04:52:32;;;;;;;10.73;4.30;;;2.10;99.90;;;;;;4987768;28;20227;-79
2022/02/12 04:54:59;;;;;;;14.83;4.23;;;2.10;99.90;;;;;;5000739;28;20567;-80
2022/02/12 04:57:28;;;;;;;12.17;4.17;;;2.00;99.90;;;;;;4998581;28;20212;-79
2022/02/12 04:59:54;;;;;;;18.67;4.27;;;2.00;99.90;;;;;;4988799;28;20207;-78
2022/02/12 05:02:21;;;;;;;11.17;4.07;;;2.00;99.90;;;;;;4988324;28;20270;-82
2022/02/12 05:04:48;;;;;;;13.03;4.37;;;2.00;99.90;;;;;;4988042;28;20199;-78
2022/02/12 05:07:14;;;;;;;11.57;4.53;;;2.00;99.90;;;;;;4988702;28;20374;-80
2022/02/12 05:09:41;;;;;;;14.57;4.97;;;2.00;99.90;;;;;;4989242;28;20216;-81
2022/02/12 05:12:09;;;;;;;9.37;4.33;;;2.00;99.90;;;;;;4987661;28;20235;-80
2022/02/12 05:14:37;;;;;;;11.97;4.40;;;2.00;99.90;;;;;;4988040;28;20215;-80
2022/02/12 05:17:04;;;;;;;14.73;4.43;;;2.00;99.90;;;;;;4987935;28;20211;-80
2022/02/12 05:19:31;;;;;;;11.50;4.20;;;2.00;99.90;;;;;;4993305;28;20468;-79
2022/02/12 05:21:57;;;;;;;9.47;3.90;;;2.00;99.90;;;;;;5007605;28;20203;-81
2022/02/12 05:24:25;;;;;;;13.00;4.17;;;2.00;99.90;;;;;;5007465;28;20214;-79
2022/02/12 05:26:52;;;;;;;13.47;3.87;;;2.00;99.90;;;;;;5007425;28;20203;-79
2022/02/12 05:29:18;;;;;;;12.60;4.50;;;2.00;99.90;;;;;;4994968;28;20204;-80
2022/02/12 05:31:46;;;;;;;13.87;4.57;;;2.00;99.90;;;;;;4987404;28;20535;-79
2022/02/12 05:34:13;;;;;;;10.27;4.00;;;2.00;99.90;;;;;;4988558;28;20212;-79
2022/02/12 05:36:40;;;;;;;15.80;4.87;;;2.00;99.90;;;;;;4988125;28;20774;-81
2022/02/12 05:39:09;;;;;;;18.33;4.63;;;2.00;99.90;;;;;;4989068;28;20211;-79
2022/02/12 05:41:36;;;;;;;14.90;5.27;;;2.10;99.90;;;;;;4988491;28;20200;-77
2022/02/12 05:44:02;;;;;;;16.57;6.67;;;2.10;99.90;;;;;;4988085;28;20235;-78
2022/02/12 05:46:29;;;;;;;15.17;4.83;;;2.10;99.90;;;;;;4995146;28;20211;-80
2022/02/12 05:48:57;;;;;;;11.03;4.27;;;2.10;99.90;;;;;;5006563;28;20237;-79
2022/02/12 05:51:24;;;;;;;15.83;6.17;;;2.00;99.90;;;;;;5006951;28;20503;-81
2022/02/12 05:53:51;;;;;;;10.53;4.73;;;2.00;99.90;;;;;;4993223;28;20215;-78
2022/02/12 05:56:18;;;;;;;13.83;5.33;;;2.00;99.90;;;;;;4986460;28;20598;-80
2022/02/12 05:58:45;;;;;;;12.50;6.07;;;2.00;99.90;;;;;;4986080;28;20203;-80
2022/02/12 06:01:11;;;;;;;15.00;5.07;;;2.00;99.90;;;;;;5006090;28;20222;-80
2022/02/12 06:03:38;;;;;;;11.90;5.37;;;2.00;99.90;;;;;;5006669;28;20282;-80
2022/02/12 06:06:06;;;;;;;10.27;4.67;;;2.10;99.90;;;;;;4987282;28;20627;-80
2022/02/12 06:08:33;;;;;;;12.80;5.33;;;2.10;99.90;;;;;;4987182;28;20198;-79
2022/02/12 06:11:03;;;;;;;11.07;5.07;;;2.10;99.90;;;;;;4986769;28;20612;-80
2022/02/12 06:13:30;;;;;;;12.17;5.33;;;2.10;99.90;;;;;;4987226;28;20934;-80
2022/02/12 06:15:57;;;;;;;13.47;5.57;;;2.10;99.90;;;;;;4986292;28;20200;-80
2022/02/12 06:18:24;;;;;;;11.33;6.10;;;2.10;99.90;;;;;;4986699;28;20204;-80
2022/02/12 06:20:50;;;;;;;15.80;5.70;;;2.10;99.90;;;;;;4986170;28;20212;-80
2022/02/12 06:23:20;;;;;;;15.93;6.93;;;2.10;99.90;;;;;;4985321;28;20678;-79
2022/02/12 06:25:48;;;;;;;13.93;5.67;;;2.00;99.90;;;;;;4990508;28;20203;-78
2022/02/12 06:28:15;;;;;;;14.50;6.13;;;2.10;99.90;;;;;;5006250;28;20294;-79
2022/02/12 06:30:41;;;;;;;12.07;5.43;;;2.10;99.90;;;;;;5005681;28;20238;-77
2022/02/12 06:33:08;;;;;;;16.77;5.83;;;2.10;99.90;;;;;;5001839;28;20251;-80
2022/02/12 06:35:35;;;;;;;10.63;5.87;;;2.00;99.90;;;;;;4986396;28;20200;-78
2022/02/12 06:38:02;;;;;;;18.40;5.87;;;2.00;99.90;;;;;;4985780;28;20219;-80
2022/02/12 06:40:30;;;;;;;15.67;6.27;;;1.90;99.90;;;;;;4986344;28;20219;-80
2022/02/12 06:42:57;;;;;;;14.23;7.13;;;2.00;99.90;;;;;;4985193;28;20227;-79
2022/02/12 06:45:24;;;;;;;12.53;5.33;;;2.00;99.90;;;;;;4985918;28;20208;-78
2022/02/12 06:47:50;;;;;;;15.10;6.30;;;2.00;99.90;;;;;;4999341;28;20238;-78
2022/02/12 06:50:18;;;;;;;17.17;6.50;;;1.90;99.90;;;;;;5005060;28;20203;-79
2022/02/12 06:52:44;;;;;;;13.40;6.17;;;1.90;99.90;;;;;;5004731;28;20227;-79
2022/02/12 06:55:11;;;;;;;16.03;6.90;;;1.90;99.90;;;;;;5005613;28;20210;-79
2022/02/12 06:57:39;;;;;;;14.73;6.30;;;1.90;99.90;;;;;;5005023;28;20209;-78
2022/02/12 07:00:07;;;;;;;13.93;6.93;;;1.90;99.90;;;;;;5005548;28;20768;-79
2022/02/12 07:02:34;;;;;;;17.07;7.20;;;1.90;99.90;;;;;;5005859;28;20199;-80
2022/02/12 07:05:00;;;;;;;13.83;6.63;;;1.90;99.90;;;;;;5004815;28;20206;-79
2022/02/12 07:07:28;;;;;;;11.80;6.83;;;1.90;99.90;;;;;;5005865;28;20203;-78
2022/02/12 07:09:54;;;;;;;14.83;6.53;;;2.00;99.90;;;;;;5005802;28;20622;-77
2022/02/12 07:12:21;;;;;;;14.17;6.60;;;1.90;99.90;;;;;;5004790;28;20702;-77
2022/02/12 07:14:49;;;;;;;18.20;7.00;;;1.90;99.90;;;;;;5005638;28;20211;-78
2022/02/12 07:17:16;;;;;;;16.40;6.77;;;1.90;99.90;;;;;;5007843;28;20266;-75
2022/02/12 07:19:43;;;;;;;15.87;7.43;;;2.00;99.90;;;;;;5008527;28;20885;-80
2022/02/12 07:22:09;;;;;;;13.20;6.93;;;1.90;99.90;;;;;;5009004;28;20206;-80
2022/02/12 07:24:36;;;;;;;15.47;6.83;;;2.00;99.90;;;;;;5018268;22;20837;-77
2022/02/12 07:27:03;;;;;;;14.17;7.37;;;2.00;99.90;;;;;;5028042;28;20206;-78
2022/02/12 07:29:30;;;;;;;14.50;7.47;;;2.00;99.90;;;;;;5028083;28;20577;-78
2022/02/12 07:31:58;;;;;;;12.43;6.53;;;1.90;99.90;;;;;;5028577;28;20559;-81
2022/02/12 07:34:25;;;;;;;13.57;6.70;;;2.00;99.90;;;;;;5029291;28;20218;-81
2022/02/12 07:36:52;;;;;;;18.47;7.77;;;2.00;99.90;;;;;;5028711;28;20209;-81
2022/02/12 07:39:19;;;;;;;18.83;6.67;;;2.00;99.90;;;;;;5028627;28;20195;-80
2022/02/12 07:41:46;;;;;;;17.77;7.97;;;2.00;99.90;;;;;;5029204;28;20202;-79
2022/02/12 07:44:13;;;;;;;16.17;6.67;;;2.00;99.90;;;;;;5044532;28;20214;-79
2022/02/12 07:46:40;;;;;;;17.03;6.93;;;2.00;99.90;;;;;;5048520;28;20314;-79
2022/02/12 07:49:08;;;;;;;17.90;6.73;;;2.00;99.90;;;;;;5048322;28;20198;-79
2022/02/12 07:51:35;;;;;;;17.57;7.27;;;2.10;99.90;;;;;;5048081;28;20307;-77
2022/02/12 07:54:03;;;;;;;13.90;6.77;;;2.10;99.90;;;;;;5048121;28;20556;-80
2022/02/12 07:56:30;;;;;;;15.80;6.97;;;2.10;99.90;;;;;;5048437;28;20206;-81
2022/02/12 07:58:56;;;;;;;16.00;6.80;;;2.20;99.90;;;;;;5048843;28;20210;-81
2022/02/12 08:01:23;;;;;;;18.83;7.47;;;2.20;99.90;;;;;;5029649;28;20218;-78
2022/02/12 08:03:50;;;;;;;17.93;7.70;;;2.30;99.90;;;;;;5029404;28;20290;-80
2022/02/12 08:09:02;;;;;;;14.73;7.00;;;2.40;99.90;;;;;;4997349;28;20243;-77
2022/02/12 08:11:30;;;;;;;17.13;9.00;;;2.40;99.90;;;;;;5028624;28;20217;-77
2022/02/12 08:13:57;;;;;;;16.00;8.40;;;2.50;99.90;;;;;;5028986;28;20320;-79
2022/02/12 08:16:24;;;;;;;20.23;8.50;;;2.50;99.90;;;;;;5026906;28;20229;-81
2022/02/12 08:18:51;;;;;;;15.53;8.60;;;2.50;99.90;;;;;;5027652;28;20814;-80
2022/02/12 08:21:19;;;;;;;20.90;8.83;;;2.50;99.90;;;;;;5027862;28;20202;-79
2022/02/12 08:23:46;;;;;;;18.93;8.40;;;2.60;99.90;;;;;;5027341;28;20201;-79
2022/02/12 08:26:14;;;;;;;16.53;7.90;;;2.60;99.90;;;;;;5042533;28;20618;-81
2022/02/12 08:28:41;;;;;;;16.33;8.30;;;2.60;99.90;;;;;;5060264;28;20251;-80
2022/02/12 08:31:08;;;;;;;14.67;7.20;;;2.70;99.90;;;;;;5067758;28;20677;-80
2022/02/12 08:33:35;;;;;;;16.60;7.67;;;2.80;99.90;;;;;;5068258;28;20800;-82
2022/02/12 08:36:01;;;;;;;15.57;7.57;;;2.80;99.90;;;;;;5062732;28;20210;-78
2022/02/12 08:38:30;;;;;;;17.97;7.87;;;2.80;99.90;;;;;;5048233;28;20198;-79
2022/02/12 08:40:56;;;;;;;19.07;8.33;;;2.90;99.90;;;;;;5048899;28;20194;-81
2022/02/12 08:43:23;;;;;;;14.43;7.67;;;2.90;99.90;;;;;;5065782;28;20228;-80
2022/02/12 08:45:50;;;;;;;15.87;7.67;;;2.90;99.90;;;;;;5074933;28;20205;-80
2022/02/12 08:48:19;;;;;;;19.60;8.47;;;3.00;99.90;;;;;;5067873;28;20467;-79
2022/02/12 08:50:46;;;;;;;10.40;7.43;;;3.00;99.90;;;;;;5039580;28;20294;-80
2022/02/12 08:53:13;;;;;;;16.93;8.43;;;3.10;99.90;;;;;;5067620;28;20692;-80
2022/02/12 08:55:42;;;;;;;13.50;8.00;;;3.20;99.90;;;;;;5067264;28;20204;-79
2022/02/12 08:58:08;;;;;;;22.77;8.10;;;3.30;99.90;;;;;;5069183;28;20220;-81
2022/02/12 09:00:35;;;;;;;15.10;7.50;;;3.30;99.90;;;;;;5087324;28;20593;-79
2022/02/12 09:03:02;;;;;;;18.43;7.97;;;3.40;99.90;;;;;;5086083;28;20201;-83
2022/02/12 09:05:29;;;;;;;12.73;7.43;;;3.40;99.90;;;;;;5085370;28;20200;-80
2022/02/12 09:07:56;;;;;;;15.33;7.10;;;3.50;99.90;;;;;;5073616;28;20194;-82
2022/02/12 09:10:23;;;;;;;15.07;7.90;;;3.50;99.90;;;;;;5051902;28;20197;-82
2022/02/12 09:12:51;;;;;;;16.17;7.67;;;3.60;99.90;;;;;;5051056;28;20500;-83
2022/02/12 09:15:18;;;;;;;17.33;10.23;;;3.70;99.90;;;;;;5058239;28;20797;-77
2022/02/12 09:17:45;;;;;;;20.10;8.10;;;3.70;99.90;;;;;;5057973;28;20218;-82
2022/02/12 09:20:12;;;;;;;15.27;8.20;;;3.80;99.90;;;;;;5050230;28;20202;-83
2022/02/12 09:22:39;;;;;;;17.13;8.30;;;3.80;99.90;;;;;;5060396;28;20201;-84
2022/02/12 09:25:08;;;;;;;15.90;7.57;;;3.80;99.90;;;;;;5069160;28;20225;-84
2022/02/12 09:27:35;;;;;;;14.97;7.93;;;3.90;99.90;;;;;;5069642;28;20614;-82
2022/02/12 09:30:04;;;;;;;16.53;7.43;;;4.00;99.90;;;;;;5051975;28;20206;-80
2022/02/12 09:32:31;;;;;;;13.23;7.43;;;4.10;99.90;;;;;;5048719;28;20260;-84
2022/02/12 09:34:58;;;;;;;13.13;7.33;;;4.10;99.90;;;;;;5048500;28;20284;-77
2022/02/12 09:37:25;;;;;;;13.20;7.03;;;4.20;99.90;;;;;;5049186;28;20268;-77
2022/02/12 09:39:52;;;;;;;14.00;7.43;;;4.30;99.90;;;;;;5048199;28;20201;-77
2022/02/12 09:42:19;;;;;;;19.40;7.63;;;4.40;99.90;;;;;;5048245;28;20228;-80
2022/02/12 09:44:46;;;;;;;18.03;6.77;;;4.40;99.90;;;;;;5050081;28;20218;-82
2022/02/12 09:47:33;;;;;;;15.83;6.57;;;4.40;99.90;;;;;;5051566;28;20550;-83
2022/02/12 09:50:00;;;;;;;14.20;6.20;;;4.40;99.90;;;;;;5051827;28;20214;-84
2022/02/12 09:52:33;;;;;;;11.13;6.50;;;4.50;99.90;;;;;;5050000;28;20217;-80
2022/02/12 09:55:00;;;;;;;15.90;7.10;;;4.60;99.90;;;;;;5069045;28;20820;-81
2022/02/12 09:57:28;;;;;;;11.73;5.63;;;4.70;99.90;;;;;;5070281;28;20202;-81
2022/02/12 09:59:59;;;;;;;15.10;7.10;;;4.80;99.90;;;;;;5070430;28;20201;-80
2022/02/12 10:02:27;;;;;;;11.43;6.40;;;4.80;99.90;;;;;;5090718;28;20228;-80
2022/02/12 10:05:20;;;;;;;13.50;5.97;;;4.90;99.90;;;;;;5089360;28;20278;-82
2022/02/12 10:07:47;;;;;;;14.07;6.93;;;4.90;99.90;;;;;;5081268;28;20258;-81
2022/02/12 10:10:17;;;;;;;18.63;6.37;;;5.00;99.90;;;;;;5069374;28;20224;-82
2022/02/12 10:12:44;;;;;;;13.60;6.20;;;5.10;99.90;;;;;;5069659;28;20193;-82
2022/02/12 10:15:24;;;;;;;9.37;6.10;;;5.10;99.90;;;;;;5053271;28;20214;-82
2022/02/12 10:17:56;;;;;;;14.07;6.50;;;5.20;99.90;;;;;;5048134;28;20286;-79
2022/02/12 10:20:29;;;;;;;13.10;6.37;;;5.30;99.90;;;;;;5061115;28;20237;-82
2022/02/12 10:23:06;;;;;;;11.73;6.43;;;5.30;99.90;;;;;;5048507;28;20252;-83
2022/02/12 10:25:34;;;;;;;16.47;6.60;;;5.40;99.90;;;;;;5049136;28;20236;-78
2022/02/12 10:28:01;;;;;;;15.50;6.10;;;5.50;99.90;;;;;;5047640;28;20205;-81
2022/02/12 10:30:28;;;;;;;13.50;6.67;;;5.50;99.90;;;;;;5047755;28;20209;-77
2022/02/12 10:32:59;;;;;;;19.67;6.10;;;5.60;99.90;;;;;;5047348;28;20521;-82
2022/02/12 10:35:27;;;;;;;9.80;5.73;;;5.80;99.90;;;;;;5057665;28;20208;-83
2022/02/12 10:38:02;;;;;;;13.53;7.50;;;5.90;99.90;;;;;;5068117;28;20212;-82
2022/02/12 10:40:30;;;;;;;17.70;6.80;;;6.00;99.90;;;;;;5066422;28;20775;-78
2022/02/12 10:42:57;;;;;;;15.60;5.83;;;6.10;99.90;;;;;;5065579;28;20854;-81
2022/02/12 10:45:26;;;;;;;10.70;5.23;;;6.10;99.90;;;;;;5067516;28;20220;-81
2022/02/12 10:47:54;;;;;;;13.57;5.87;;;6.20;99.90;;;;;;5067250;28;20216;-83
2022/02/12 10:50:25;;;;;;;11.27;5.60;;;6.20;99.90;;;;;;5065767;28;20836;-77
2022/02/12 10:52:55;;;;;;;13.73;5.47;;;6.30;99.90;;;;;;5050483;28;20321;-82
2022/02/12 10:55:32;;;;;;;14.10;5.57;;;6.40;99.90;;;;;;5046728;28;20201;-81
2022/02/12 10:58:01;;;;;;;14.63;5.57;;;6.40;99.90;;;;;;5061069;28;20200;-79
2022/02/12 11:00:29;;;;;;;10.27;5.03;;;6.50;99.90;;;;;;5087871;28;20204;-80
2022/02/12 11:02:59;;;;;;;11.10;5.40;;;6.50;99.90;;;;;;5077831;28;20198;-81
2022/02/12 11:05:28;;;;;;;11.00;4.97;;;6.70;99.90;;;;;;5045948;28;20703;-80
2022/02/12 11:07:55;;;;;;;9.23;5.10;;;6.70;99.90;;;;;;5046695;28;20606;-79
2022/02/12 11:10:22;;;;;;;11.07;4.73;;;6.70;99.90;;;;;;5045764;28;20205;-79
2022/02/12 11:12:50;;;;;;;10.40;4.83;;;6.80;99.90;;;;;;5047092;28;20217;-81
2022/02/12 11:15:17;;;;;;;9.97;4.67;;;6.80;99.90;;;;;;5049887;28;20226;-76
2022/02/12 11:17:46;;;;;;;9.67;4.80;;;6.80;99.90;;;;;;5049186;28;20206;-80
2022/02/12 11:20:14;;;;;;;10.47;4.40;;;6.80;99.90;;;;;;5046544;28;20728;-77
2022/02/12 11:22:43;;;;;;;9.53;4.53;;;6.90;99.90;;;;;;5067312;28;20208;-77
2022/02/12 11:25:35;;;;;;;9.97;4.70;;;7.00;99.90;;;;;;5071591;28;20236;-82
2022/02/12 11:28:06;;;;;;;12.03;4.73;;;7.10;99.90;;;;;;5055410;28;20274;-82
2022/02/12 11:30:33;;;;;;;10.57;4.47;;;7.10;99.90;;;;;;5086566;28;20238;-80
2022/02/12 11:33:01;;;;;;;9.57;4.30;;;7.20;99.90;;;;;;5087704;28;20205;-82
2022/02/12 11:35:27;;;;;;;8.43;3.97;;;7.30;99.90;;;;;;5086700;28;20228;-82
2022/02/12 11:37:56;;;;;;;14.73;4.17;;;7.30;99.90;;;;;;5067872;28;20515;-82
2022/02/12 11:40:24;;;;;;;15.50;4.53;;;7.50;99.90;;;;;;5067404;28;20197;-81
2022/02/12 11:42:53;;;;;;;7.77;4.10;;;7.50;99.90;;;;;;5049038;28;20233;-81
2022/02/12 11:45:25;;;;;;;9.47;4.30;;;7.50;99.90;;;;;;5045590;28;20211;-81
2022/02/12 11:48:18;;;;;;;9.43;4.10;;;7.60;99.90;;;;;;5064174;28;20571;-77
2022/02/12 11:50:48;;;;;;;10.93;4.03;;;7.60;99.90;;;;;;5051323;28;20289;-82
2022/02/12 11:53:34;;;;;;;11.57;3.33;;;7.70;99.90;;;;;;5045490;28;20210;-81
2022/02/12 11:56:02;;;;;;;8.17;3.20;;;7.80;99.90;;;;;;5044622;28;20196;-76
2022/02/12 11:58:47;;;;;;;8.10;3.10;;;7.80;99.90;;;;;;5044257;28;20616;-78
2022/02/12 12:01:42;;;;;;;7.93;3.63;;;7.80;99.90;;;;;;5038396;28;20216;-76
2022/02/12 12:04:15;;;;;;;7.73;3.50;;;7.90;99.90;;;;;;5066644;28;20284;-79
2022/02/12 12:07:17;;;;;;;7.53;2.73;;;7.80;99.90;;;;;;5067926;28;20235;-77
2022/02/12 12:10:11;;;;;;;5.17;3.00;;;7.80;99.90;;;;;;5049675;28;20213;-80
2022/02/12 12:12:38;;;;;;;6.63;2.77;;;7.80;99.90;;;;;;5060155;28;20729;-82
2022/02/12 12:15:20;;;;;;;5.17;2.83;;;7.80;99.90;;;;;;5068976;28;20225;-80
2022/02/12 12:17:56;;;;;;;8.13;3.33;;;7.90;99.90;;;;;;5068597;28;20201;-77
2022/02/12 12:20:33;;;;;;;5.40;2.23;;;7.90;99.90;;;;;;5051866;28;20284;-79
2022/02/12 12:23:03;;;;;;;7.07;2.93;;;7.90;99.90;;;;;;5058010;28;20204;-80
2022/02/12 12:25:57;;;;;;;5.03;2.33;;;8.00;99.90;;;;;;5068142;28;20260;-79
2022/02/12 12:28:26;;;;;;;9.53;2.77;;;8.10;99.90;;;;;;5066800;28;20556;-78
2022/02/12 12:30:52;;;;;;;4.00;2.37;;;8.20;99.90;;;;;;5068012;28;20209;-80
2022/02/12 12:33:19;;;;;;;6.03;2.67;;;8.20;99.90;;;;;;5068351;28;20209;-82
2022/02/12 12:35:51;;;;;;;7.03;2.53;;;8.10;99.90;;;;;;5068256;28;20229;-78
2022/02/12 12:38:18;;;;;;;6.50;2.70;;;8.10;99.90;;;;;;5056124;28;20282;-76
2022/02/12 12:40:46;;;;;;;7.90;3.03;;;8.10;99.90;;;;;;5047818;28;20213;-83
2022/02/12 12:43:15;;;;;;;6.33;2.80;;;8.10;99.90;;;;;;5047287;28;20232;-81
2022/02/12 12:45:44;;;;;;;6.60;2.63;;;8.10;99.90;;;;;;5047911;28;20293;-77
2022/02/12 12:48:11;;;;;;;3.93;1.97;;;8.20;99.90;;;;;;5065736;28;20205;-77
2022/02/12 12:50:40;;;;;;;5.07;2.20;;;8.20;99.90;;;;;;5046636;28;20209;-82
2022/02/12 12:53:08;;;;;;;5.93;2.70;;;8.20;99.90;;;;;;5047421;28;20217;-79
2022/02/12 12:55:35;;;;;;;8.90;3.13;;;8.30;99.90;;;;;;5046683;28;20226;-77
2022/02/12 12:58:12;;;;;;;8.40;2.53;;;8.30;99.90;;;;;;5048481;28;20217;-82
2022/02/12 13:00:39;;;;;;;8.23;2.50;;;8.30;99.90;;;;;;5068077;28;20193;-76
2022/02/12 13:03:06;;;;;;;5.97;2.23;;;8.30;99.90;;;;;;5068278;28;20201;-79